Time;durP1;ratioP1;P1;durP2;ratioP2;P2;SDS_P1;SDS_P2;PMS_P1;PMS_P2;Temp;Humidity;BMP_temperature;BMP_pressure;BME280_temperature;BME280_humidity;BME280_pressure;Samples;Min_cycle;Max_cycle;Signal;HPM_P1;HPM_P2
2022/10/10 00:01:23;;;;;;;3.38;0.22;;;22.10;46.40;;;;;;5057183;28;20047;-60
2022/10/10 00:03:50;;;;;;;0.80;0.50;;;22.10;46.40;;;;;;5050638;28;20063;-60
2022/10/10 00:06:20;;;;;;;0.60;0.30;;;22.10;46.40;;;;;;5069374;28;20041;-61
2022/10/10 00:08:47;;;;;;;3.60;1.60;;;22.20;46.40;;;;;;5069505;28;20589;-61
2022/10/10 00:11:15;;;;;;;0.77;0.70;;;22.20;46.40;;;;;;5055784;28;20063;-61
2022/10/10 00:13:42;;;;;;;2.50;1.08;;;22.20;46.40;;;;;;5069547;28;20044;-62
2022/10/10 00:16:10;;;;;;;2.72;0.73;;;22.20;46.40;;;;;;5055856;28;20044;-60
2022/10/10 00:18:38;;;;;;;1.08;0.25;;;22.20;46.40;;;;;;5063440;28;20123;-61
2022/10/10 00:21:06;;;;;;;2.80;0.68;;;22.20;47.10;;;;;;5062644;28;20063;-61
2022/10/10 00:23:34;;;;;;;3.60;0.52;;;22.20;46.50;;;;;;5068986;28;20044;-62
2022/10/10 00:26:03;;;;;;;0.60;0.57;;;22.20;46.40;;;;;;5060504;28;20124;-62
2022/10/10 00:28:30;;;;;;;1.08;0.70;;;22.20;46.40;;;;;;5066751;28;20060;-62
2022/10/10 00:30:57;;;;;;;2.35;0.65;;;22.20;46.40;;;;;;5063640;28;20045;-62
2022/10/10 00:33:24;;;;;;;3.72;0.68;;;22.20;46.40;;;;;;5049795;28;20059;-60
2022/10/10 00:35:51;;;;;;;0.50;0.30;;;22.20;46.30;;;;;;5056256;28;20513;-62
2022/10/10 00:38:18;;;;;;;1.30;0.50;;;22.20;46.30;;;;;;5042959;28;20132;-64
2022/10/10 00:40:49;;;;;;;0.88;0.30;;;22.20;46.30;;;;;;5068227;28;20051;-61
2022/10/10 00:43:17;;;;;;;1.98;0.35;;;22.20;46.20;;;;;;5043024;28;20036;-63
2022/10/10 00:45:45;;;;;;;3.78;0.50;;;22.20;46.20;;;;;;5043179;28;20099;-62
2022/10/10 00:48:15;;;;;;;4.05;1.60;;;22.30;46.20;;;;;;5056148;28;20045;-62
2022/10/10 00:50:46;;;;;;;3.15;0.68;;;22.20;46.10;;;;;;5069074;28;20044;-62
2022/10/10 00:53:16;;;;;;;1.00;0.82;;;22.30;46.10;;;;;;5058951;28;20041;-61
2022/10/10 00:55:44;;;;;;;1.55;0.55;;;22.30;46.10;;;;;;5049584;28;20037;-62
2022/10/10 00:58:13;;;;;;;0.98;0.85;;;22.30;46.00;;;;;;5049681;28;20044;-59
2022/10/10 01:00:40;;;;;;;0.50;0.50;;;22.30;46.00;;;;;;5054414;28;20049;-60
2022/10/10 01:03:07;;;;;;;1.20;0.60;;;22.30;46.00;;;;;;5046102;28;20041;-61
2022/10/10 01:05:35;;;;;;;2.15;0.38;;;22.30;46.60;;;;;;5046352;28;20416;-60
2022/10/10 01:08:05;;;;;;;0.60;0.32;;;22.30;46.00;;;;;;5064654;28;20055;-60
2022/10/10 01:10:38;;;;;;;2.60;0.70;;;22.30;46.00;;;;;;5068166;28;20332;-59
2022/10/10 01:13:18;;;;;;;1.70;0.52;;;22.30;46.10;;;;;;5068173;28;20894;-60
2022/10/10 01:15:50;;;;;;;3.05;0.35;;;22.30;46.10;;;;;;5062548;28;20048;-60
2022/10/10 01:18:26;;;;;;;3.03;0.50;;;22.30;46.10;;;;;;5068024;28;20083;-60
2022/10/10 01:21:10;;;;;;;3.42;0.75;;;22.30;46.10;;;;;;5042580;28;20051;-60
2022/10/10 01:24:19;;;;;;;1.00;0.30;;;22.30;46.00;;;;;;5060099;28;20052;-59
2022/10/10 01:27:16;;;;;;;3.05;0.60;;;22.30;46.00;;;;;;5062487;28;20128;-60
2022/10/10 01:29:49;;;;;;;1.33;0.40;;;22.30;46.00;;;;;;5065175;28;20044;-60
2022/10/10 01:32:23;;;;;;;1.40;0.82;;;22.20;46.10;;;;;;5054876;28;20057;-62
2022/10/10 01:35:01;;;;;;;4.20;1.15;;;22.30;46.10;;;;;;5062403;28;20040;-60
2022/10/10 01:37:38;;;;;;;3.22;1.45;;;22.20;46.00;;;;;;5058783;28;20044;-59
2022/10/10 01:40:11;;;;;;;2.33;0.50;;;22.30;46.10;;;;;;5065309;28;20050;-59
2022/10/10 01:42:43;;;;;;;0.95;0.52;;;22.30;46.10;;;;;;5053004;28;20535;-60
2022/10/10 01:45:12;;;;;;;2.80;1.30;;;22.30;46.10;;;;;;5067324;28;20067;-59
2022/10/10 01:47:39;;;;;;;3.80;0.68;;;22.20;46.00;;;;;;5067340;28;20047;-60
2022/10/10 01:50:08;;;;;;;3.58;0.43;;;22.20;46.00;;;;;;5063857;28;20128;-59
2022/10/10 01:52:43;;;;;;;1.10;0.75;;;22.30;46.00;;;;;;5064954;28;20506;-59
2022/10/10 01:55:26;;;;;;;1.60;0.70;;;22.20;45.90;;;;;;5051109;28;20045;-59
2022/10/10 01:58:03;;;;;;;3.75;0.60;;;22.30;45.90;;;;;;5067328;28;20043;-61
2022/10/10 02:00:45;;;;;;;1.08;0.77;;;22.30;46.00;;;;;;5067592;28;20177;-60
2022/10/10 02:03:17;;;;;;;2.65;0.30;;;22.30;45.90;;;;;;5067208;28;20071;-60
2022/10/10 02:05:49;;;;;;;4.13;0.43;;;22.30;46.00;;;;;;5067184;28;20044;-60
2022/10/10 02:08:25;;;;;;;3.38;0.50;;;22.20;46.00;;;;;;5067370;28;20052;-60
2022/10/10 02:10:56;;;;;;;3.60;0.40;;;22.30;46.10;;;;;;5066934;28;20217;-60
2022/10/10 02:13:29;;;;;;;0.60;0.47;;;22.20;46.00;;;;;;5067318;28;20529;-60
2022/10/10 02:16:00;;;;;;;2.35;1.50;;;22.20;46.00;;;;;;5041480;28;20044;-60
2022/10/10 02:18:32;;;;;;;0.98;0.30;;;22.30;46.10;;;;;;5048244;28;20045;-60
2022/10/10 02:21:03;;;;;;;3.30;0.63;;;22.20;46.10;;;;;;5048419;28;20588;-62
2022/10/10 02:23:33;;;;;;;1.75;0.50;;;22.20;46.10;;;;;;5047627;28;20037;-62
2022/10/10 02:26:00;;;;;;;0.68;0.52;;;22.20;46.10;;;;;;5054393;28;20140;-61
2022/10/10 02:28:35;;;;;;;4.72;0.40;;;22.20;46.00;;;;;;5066733;28;20044;-61
2022/10/10 02:31:08;;;;;;;0.70;0.30;;;22.20;46.00;;;;;;5067284;28;20623;-61
2022/10/10 02:33:44;;;;;;;4.63;0.45;;;22.20;46.10;;;;;;5063208;28;20542;-61
2022/10/10 02:36:12;;;;;;;1.27;0.40;;;22.20;46.10;;;;;;5060571;28;20041;-61
2022/10/10 02:38:40;;;;;;;0.60;0.52;;;22.20;46.10;;;;;;5050236;28;20076;-60
2022/10/10 02:41:10;;;;;;;4.50;1.00;;;22.20;46.10;;;;;;5051893;28;20195;-60
2022/10/10 02:43:39;;;;;;;0.50;0.50;;;22.20;46.10;;;;;;5065500;28;20047;-60
2022/10/10 02:46:11;;;;;;;4.60;0.63;;;22.20;46.10;;;;;;5067037;28;20385;-61
2022/10/10 02:48:38;;;;;;;1.75;0.45;;;22.20;46.10;;;;;;5066764;28;20057;-62
2022/10/10 02:51:06;;;;;;;0.80;0.45;;;22.20;46.10;;;;;;5062741;28;20722;-60
2022/10/10 02:53:34;;;;;;;0.70;0.30;;;22.20;46.10;;;;;;5062893;28;20050;-61
2022/10/10 02:56:01;;;;;;;1.23;0.25;;;22.20;46.10;;;;;;5062894;28;20041;-60
2022/10/10 02:58:28;;;;;;;2.88;0.47;;;22.20;46.10;;;;;;5065318;28;20571;-60
2022/10/10 03:00:55;;;;;;;1.58;0.73;;;22.20;46.10;;;;;;5067327;28;20460;-59
2022/10/10 03:03:24;;;;;;;1.15;0.40;;;22.20;46.10;;;;;;5057525;28;20051;-60
2022/10/10 03:05:51;;;;;;;3.00;0.50;;;22.20;46.10;;;;;;5068526;28;20154;-59
2022/10/10 03:08:18;;;;;;;2.35;0.55;;;22.20;46.10;;;;;;5070043;28;20123;-59
2022/10/10 03:10:54;;;;;;;1.48;0.57;;;22.20;46.10;;;;;;5052202;28;20049;-60
2022/10/10 03:13:21;;;;;;;;;;;22.20;46.10;;;;;;5063170;28;20106;-59
2022/10/10 03:15:48;;;;;;;2.15;0.38;;;22.10;46.00;;;;;;5070104;28;20412;-60
2022/10/10 03:18:15;;;;;;;0.95;0.30;;;22.10;46.20;;;;;;5070404;28;20044;-59
2022/10/10 03:20:45;;;;;;;2.17;0.55;;;22.20;46.20;;;;;;5065193;28;20036;-59
2022/10/10 03:23:12;;;;;;;2.33;0.50;;;22.20;46.20;;;;;;5058954;28;20041;-61
2022/10/10 03:25:41;;;;;;;0.80;0.50;;;22.20;46.20;;;;;;5051298;28;20041;-59
2022/10/10 03:28:08;;;;;;;1.52;0.70;;;22.20;46.10;;;;;;5062418;28;20136;-62
2022/10/10 03:30:36;;;;;;;1.27;0.40;;;22.20;46.10;;;;;;5070163;28;20047;-60
2022/10/10 03:33:03;;;;;;;0.50;0.47;;;22.10;46.10;;;;;;5061677;28;20084;-59
2022/10/10 03:35:30;;;;;;;1.67;0.52;;;22.20;46.10;;;;;;5051450;28;20464;-59
2022/10/10 03:37:59;;;;;;;1.83;0.43;;;22.20;46.10;;;;;;5051068;28;20041;-60
2022/10/10 03:40:27;;;;;;;0.40;0.30;;;22.20;46.10;;;;;;5055044;28;20032;-60
2022/10/10 03:42:55;;;;;;;1.02;0.43;;;22.20;46.10;;;;;;5059152;28;20033;-60
2022/10/10 03:45:22;;;;;;;3.03;0.77;;;22.20;46.20;;;;;;5050977;28;20045;-60
2022/10/10 03:47:50;;;;;;;0.40;0.40;;;22.20;46.20;;;;;;5067946;28;20032;-60
2022/10/10 03:50:17;;;;;;;1.10;0.40;;;22.20;46.20;;;;;;5059357;28;20045;-60
2022/10/10 03:52:45;;;;;;;4.60;0.50;;;22.20;46.20;;;;;;5067815;28;20590;-61
2022/10/10 03:55:13;;;;;;;2.00;0.30;;;22.20;46.20;;;;;;5067688;28;20040;-58
2022/10/10 03:57:41;;;;;;;1.98;0.47;;;22.20;46.20;;;;;;5070123;28;20058;-61
2022/10/10 04:00:09;;;;;;;1.85;0.35;;;22.20;46.20;;;;;;5069835;28;20123;-61
2022/10/10 04:02:36;;;;;;;0.70;0.40;;;22.20;46.20;;;;;;5063164;28;20040;-60
2022/10/10 04:05:03;;;;;;;2.08;0.93;;;22.10;46.10;;;;;;5049985;28;20045;-61
2022/10/10 04:07:31;;;;;;;1.38;0.30;;;22.20;46.10;;;;;;5056868;28;20045;-61
2022/10/10 04:09:58;;;;;;;3.50;0.55;;;22.20;46.10;;;;;;5056873;28;20040;-61
2022/10/10 04:12:26;;;;;;;1.05;0.25;;;22.20;46.10;;;;;;5063402;28;20140;-59
2022/10/10 04:14:53;;;;;;;1.05;0.43;;;22.20;46.10;;;;;;5050047;28;20411;-59
2022/10/10 04:17:20;;;;;;;1.77;0.57;;;22.20;46.10;;;;;;5059853;28;20040;-59
2022/10/10 04:19:47;;;;;;;3.70;0.68;;;22.20;46.10;;;;;;5068918;28;20048;-59
2022/10/10 04:22:15;;;;;;;2.47;0.80;;;22.20;46.10;;;;;;5062732;28;20079;-60
2022/10/10 04:24:42;;;;;;;2.15;0.75;;;22.20;46.10;;;;;;5055357;28;20098;-55
2022/10/10 04:27:10;;;;;;;1.73;0.63;;;22.20;46.20;;;;;;5051141;28;20038;-51
2022/10/10 04:29:38;;;;;;;1.40;0.85;;;22.10;46.20;;;;;;5047832;28;20402;-48
2022/10/10 04:32:06;;;;;;;3.53;0.95;;;22.10;46.60;;;;;;5051398;28;20139;-46
2022/10/10 04:34:33;;;;;;;0.82;0.47;;;22.10;46.80;;;;;;5058522;28;20147;-53
2022/10/10 04:37:00;;;;;;;4.95;1.17;;;22.10;47.00;;;;;;5064899;28;20489;-53
2022/10/10 04:39:27;;;;;;;3.03;0.65;;;22.10;47.10;;;;;;5066341;28;20132;-51
2022/10/10 04:41:54;;;;;;;4.47;1.58;;;22.10;47.20;;;;;;5055976;28;20531;-52
2022/10/10 04:44:21;;;;;;;1.25;0.25;;;22.20;47.30;;;;;;5049450;28;20064;-49
2022/10/10 04:46:50;;;;;;;6.45;0.80;;;22.20;47.30;;;;;;5052792;28;20043;-48
2022/10/10 04:49:16;;;;;;;8.82;0.75;;;22.20;47.40;;;;;;5063975;28;20436;-50
2022/10/10 04:51:44;;;;;;;2.75;0.50;;;22.30;47.50;;;;;;5058979;28;20045;-49
2022/10/10 04:54:12;;;;;;;1.65;0.68;;;22.30;47.50;;;;;;5058872;28;20158;-50
2022/10/10 04:56:41;;;;;;;3.03;1.15;;;22.40;47.50;;;;;;5061722;28;20136;-52
2022/10/10 04:59:08;;;;;;;2.30;0.75;;;22.40;47.50;;;;;;5057256;28;20044;-49
2022/10/10 05:01:35;;;;;;;2.13;0.82;;;22.50;47.50;;;;;;5048840;28;20052;-47
2022/10/10 05:04:04;;;;;;;2.30;0.80;;;22.50;47.40;;;;;;5050926;28;20607;-48
2022/10/10 05:06:31;;;;;;;1.85;0.30;;;22.50;47.30;;;;;;5057472;28;20442;-52
2022/10/10 05:08:58;;;;;;;4.28;0.38;;;22.60;47.30;;;;;;5062852;28;20794;-51
2022/10/10 05:11:25;;;;;;;1.65;0.30;;;22.60;47.10;;;;;;5064714;28;20576;-51
2022/10/10 05:13:52;;;;;;;2.53;0.73;;;22.70;47.10;;;;;;5060492;28;20055;-50
2022/10/10 05:16:19;;;;;;;1.73;0.50;;;22.70;47.00;;;;;;5067712;28;20040;-47
2022/10/10 05:18:46;;;;;;;0.50;0.40;;;22.80;46.90;;;;;;5056467;28;20049;-48
2022/10/10 05:21:14;;;;;;;2.85;0.38;;;22.80;46.80;;;;;;5057900;28;20528;-48
2022/10/10 05:23:41;;;;;;;0.52;0.30;;;22.80;46.70;;;;;;5048834;28;20453;-47
2022/10/10 05:26:09;;;;;;;0.90;0.35;;;22.90;46.60;;;;;;5048025;28;20049;-49
2022/10/10 05:28:36;;;;;;;2.83;0.43;;;22.90;46.50;;;;;;5062580;28;20044;-49
2022/10/10 05:31:05;;;;;;;3.00;0.30;;;22.90;46.50;;;;;;5067437;28;20144;-47
2022/10/10 05:33:33;;;;;;;2.55;0.60;;;22.90;46.40;;;;;;5050910;28;20584;-52
2022/10/10 05:36:04;;;;;;;2.72;0.38;;;23.00;46.40;;;;;;5056444;28;20045;-49
2022/10/10 05:38:33;;;;;;;2.30;0.40;;;23.00;46.30;;;;;;5060830;28;20044;-49
2022/10/10 05:41:00;;;;;;;2.63;0.38;;;23.00;46.30;;;;;;5061631;28;20539;-50
2022/10/10 05:43:27;;;;;;;2.75;0.43;;;23.00;46.30;;;;;;5057543;28;20516;-50
2022/10/10 05:45:55;;;;;;;0.47;0.32;;;23.00;46.20;;;;;;5058940;28;20037;-53
2022/10/10 05:48:22;;;;;;;0.30;0.25;;;23.10;46.30;;;;;;5065966;28;20047;-46
2022/10/10 05:50:50;;;;;;;3.55;0.50;;;23.10;46.30;;;;;;5062849;28;20412;-45
2022/10/10 05:53:18;;;;;;;1.27;1.17;;;23.10;46.20;;;;;;5058151;28;20067;-51
2022/10/10 05:55:47;;;;;;;2.65;1.33;;;23.10;46.20;;;;;;5058094;28;20049;-48
2022/10/10 05:58:14;;;;;;;0.60;0.50;;;23.20;46.20;;;;;;5060690;28;20044;-49
2022/10/10 06:00:41;;;;;;;15.30;0.57;;;23.20;46.10;;;;;;5063455;28;20041;-49
2022/10/10 06:03:12;;;;;;;5.25;0.40;;;23.20;46.10;;;;;;5058590;28;20402;-48
2022/10/10 06:05:40;;;;;;;0.63;0.40;;;23.20;46.10;;;;;;5061036;28;20041;-48
2022/10/10 06:08:07;;;;;;;1.95;0.32;;;23.20;46.00;;;;;;5061690;28;20045;-47
2022/10/10 06:10:35;;;;;;;1.92;0.65;;;23.30;46.00;;;;;;5063173;28;20098;-47
2022/10/10 06:13:04;;;;;;;2.03;0.63;;;23.30;45.90;;;;;;5054405;28;20714;-45
2022/10/10 06:15:31;;;;;;;0.75;0.40;;;23.30;46.00;;;;;;5054540;28;20119;-47
2022/10/10 06:17:58;;;;;;;3.60;0.32;;;23.20;45.90;;;;;;5058001;28;20045;-47
2022/10/10 06:20:25;;;;;;;1.75;0.20;;;23.20;45.90;;;;;;5055102;28;20124;-50
2022/10/10 06:22:52;;;;;;;4.88;0.55;;;23.20;46.00;;;;;;5061744;28;20041;-53
2022/10/10 06:25:19;;;;;;;3.08;0.40;;;23.10;46.00;;;;;;5057958;28;20515;-55
2022/10/10 06:27:46;;;;;;;2.28;0.43;;;23.10;46.00;;;;;;5055472;28;20060;-55
2022/10/10 06:30:15;;;;;;;3.92;0.30;;;23.10;46.10;;;;;;5057126;28;20059;-49
2022/10/10 06:32:42;;;;;;;1.38;0.40;;;23.10;46.20;;;;;;5056824;28;20049;-47
2022/10/10 06:35:10;;;;;;;4.03;0.30;;;23.10;46.40;;;;;;5061105;28;20065;-55
2022/10/10 06:37:37;;;;;;;1.95;0.25;;;23.20;46.40;;;;;;5059982;28;20047;-54
2022/10/10 06:40:05;;;;;;;2.00;0.90;;;23.30;46.50;;;;;;5064830;28;20068;-52
2022/10/10 06:42:32;;;;;;;2.25;0.45;;;23.30;46.40;;;;;;5067467;28;20055;-46
2022/10/10 06:44:59;;;;;;;3.30;0.50;;;23.40;46.30;;;;;;5063287;28;20033;-46
2022/10/10 06:47:28;;;;;;;1.30;0.40;;;23.50;46.20;;;;;;5065555;28;20037;-45
2022/10/10 06:49:55;;;;;;;0.90;0.40;;;23.60;46.20;;;;;;5045218;28;20053;-48
2022/10/10 06:52:22;;;;;;;0.40;0.22;;;23.70;46.10;;;;;;5056028;28;20044;-46
2022/10/10 06:54:49;;;;;;;5.72;1.00;;;23.80;45.90;;;;;;5055115;28;20128;-48
2022/10/10 06:57:16;;;;;;;5.50;0.68;;;23.80;45.70;;;;;;5067357;28;20052;-51
2022/10/10 06:59:43;;;;;;;2.17;0.60;;;23.90;45.50;;;;;;5063994;28;20505;-48
2022/10/10 07:02:12;;;;;;;3.03;0.88;;;24.10;45.30;;;;;;5066423;28;20044;-49
2022/10/10 07:04:41;;;;;;;2.30;0.50;;;24.20;45.10;;;;;;5064252;28;20044;-48
2022/10/10 07:07:08;;;;;;;2.75;0.65;;;24.20;44.90;;;;;;5065452;28;20052;-54
2022/10/10 07:09:35;;;;;;;3.45;0.90;;;24.30;44.60;;;;;;5061048;28;20484;-54
2022/10/10 07:12:03;;;;;;;2.55;0.30;;;24.40;44.40;;;;;;5070616;28;20036;-52
2022/10/10 07:14:30;;;;;;;2.05;0.57;;;24.50;44.20;;;;;;5066224;28;20131;-46
2022/10/10 07:16:57;;;;;;;2.65;0.40;;;24.60;43.90;;;;;;5069257;28;20091;-46
2022/10/10 07:19:24;;;;;;;3.10;1.08;;;24.60;43.60;;;;;;5064244;28;20045;-50
2022/10/10 07:21:53;;;;;;;2.15;0.40;;;24.60;43.50;;;;;;5064601;28;20120;-50
2022/10/10 07:24:20;;;;;;;4.65;0.75;;;24.70;43.40;;;;;;5066840;28;20129;-49
2022/10/10 07:26:47;;;;;;;7.90;1.30;;;24.70;43.30;;;;;;5054663;28;20037;-48
2022/10/10 07:29:14;;;;;;;3.75;0.50;;;24.70;43.30;;;;;;5061990;28;20128;-49
2022/10/10 07:31:41;;;;;;;3.45;0.80;;;24.80;43.20;;;;;;5065738;28;20516;-49
2022/10/10 07:34:08;;;;;;;5.93;0.70;;;24.90;43.00;;;;;;5053830;28;20137;-50
2022/10/10 07:36:35;;;;;;;2.45;0.93;;;25.00;43.00;;;;;;5062737;28;20060;-51
2022/10/10 07:39:03;;;;;;;5.45;0.40;;;25.00;42.80;;;;;;5065954;28;20052;-54
2022/10/10 07:41:30;;;;;;;2.30;0.68;;;25.10;42.80;;;;;;5060083;28;20037;-50
2022/10/10 07:43:57;;;;;;;8.32;0.88;;;25.10;42.80;;;;;;5058940;28;20040;-50
2022/10/10 07:46:25;;;;;;;3.42;0.50;;;25.10;42.80;;;;;;5062017;28;20040;-53
2022/10/10 07:48:52;;;;;;;3.47;0.70;;;25.10;42.60;;;;;;5066040;28;20048;-52
2022/10/10 07:51:19;;;;;;;4.13;0.57;;;25.20;42.60;;;;;;5062367;28;20049;-49
2022/10/10 07:53:46;;;;;;;3.92;1.30;;;25.20;42.50;;;;;;5051310;28;20052;-52
2022/10/10 07:56:14;;;;;;;2.08;1.50;;;25.20;42.50;;;;;;5058918;28;20040;-55
2022/10/10 07:58:41;;;;;;;1.40;0.40;;;25.20;42.40;;;;;;5064948;28;20040;-53
2022/10/10 08:01:11;;;;;;;5.97;0.60;;;25.20;42.40;;;;;;5063742;28;20163;-49
2022/10/10 08:03:39;;;;;;;2.55;0.63;;;25.20;42.40;;;;;;5053444;28;20140;-49
2022/10/10 08:06:08;;;;;;;1.20;0.28;;;25.20;42.40;;;;;;5063214;28;20040;-49
2022/10/10 08:08:37;;;;;;;1.48;0.40;;;25.20;42.40;;;;;;5060430;28;20044;-47
2022/10/10 08:11:05;;;;;;;0.95;0.40;;;25.20;42.40;;;;;;5064116;28;20041;-48
2022/10/10 08:13:34;;;;;;;2.88;0.95;;;25.20;42.40;;;;;;5050530;28;20076;-50
2022/10/10 08:16:01;;;;;;;2.75;0.70;;;25.20;42.40;;;;;;5049694;28;20523;-55
2022/10/10 08:18:28;;;;;;;1.48;0.70;;;25.20;43.20;;;;;;5048733;28;20072;-53
2022/10/10 08:20:59;;;;;;;5.50;0.45;;;25.20;42.80;;;;;;5063259;28;20043;-53
2022/10/10 08:23:26;;;;;;;1.00;0.52;;;25.30;42.90;;;;;;5050192;28;20044;-51
2022/10/10 08:25:53;;;;;;;1.05;0.30;;;25.30;42.90;;;;;;5065090;28;20097;-56
2022/10/10 08:28:20;;;;;;;2.45;0.47;;;25.40;42.80;;;;;;5059875;28;20086;-54
2022/10/10 08:30:49;;;;;;;0.82;0.30;;;25.50;42.80;;;;;;5066439;28;20531;-52
2022/10/10 08:33:16;;;;;;;2.22;0.85;;;25.50;42.70;;;;;;5016222;28;1103294;-52
2022/10/10 08:35:43;;;;;;;4.65;0.50;;;25.70;42.70;;;;;;5054174;28;20044;-53
2022/10/10 08:38:11;;;;;;;6.03;1.50;;;25.70;42.60;;;;;;5063068;28;20045;-55
2022/10/10 08:40:43;;;;;;;1.63;0.25;;;25.80;42.50;;;;;;5065006;28;20048;-50
2022/10/10 08:43:21;;;;;;;11.18;1.77;;;25.80;42.30;;;;;;5058720;28;20052;-47
2022/10/10 08:45:52;;;;;;;3.22;1.05;;;26.00;42.30;;;;;;5049072;28;20642;-51
2022/10/10 08:48:24;;;;;;;1.55;0.52;;;26.00;42.10;;;;;;5054956;28;20037;-50
2022/10/10 08:50:56;;;;;;;5.45;0.50;;;26.10;42.10;;;;;;5049205;28;20055;-49
2022/10/10 08:53:31;;;;;;;2.33;0.40;;;26.10;42.00;;;;;;5060352;28;20055;-49
2022/10/10 08:55:58;;;;;;;1.42;0.65;;;26.20;42.00;;;;;;5064015;28;20075;-50
2022/10/10 08:58:29;;;;;;;1.85;0.95;;;26.20;42.00;;;;;;5066982;28;20043;-48
2022/10/10 09:01:04;;;;;;;3.47;0.60;;;26.20;41.90;;;;;;5057802;28;20048;-50
2022/10/10 09:03:39;;;;;;;5.95;0.90;;;26.20;41.90;;;;;;5053830;28;20041;-50
2022/10/10 09:06:22;;;;;;;4.78;0.30;;;26.30;41.90;;;;;;5062020;28;20117;-49
2022/10/10 09:08:59;;;;;;;3.67;0.30;;;26.40;42.00;;;;;;5067475;28;20045;-53
2022/10/10 09:11:44;;;;;;;5.50;0.38;;;26.40;41.90;;;;;;5057916;28;20131;-48
2022/10/10 09:14:23;;;;;;;0.63;0.30;;;26.40;41.90;;;;;;5046923;28;20033;-51
2022/10/10 09:16:58;;;;;;;2.08;0.70;;;26.40;41.80;;;;;;5057578;28;20045;-52
2022/10/10 09:19:39;;;;;;;2.72;0.25;;;26.50;41.80;;;;;;5054221;28;20709;-48
2022/10/10 09:22:13;;;;;;;2.70;0.20;;;26.50;41.70;;;;;;5067831;28;20866;-52
2022/10/10 09:24:46;;;;;;;1.35;0.77;;;26.50;41.70;;;;;;5058785;28;20037;-47
2022/10/10 09:27:16;;;;;;;4.82;0.55;;;26.60;41.70;;;;;;5050800;28;20515;-49
2022/10/10 09:29:49;;;;;;;7.20;0.63;;;26.60;41.60;;;;;;5045036;28;20047;-52
2022/10/10 09:32:22;;;;;;;1.67;0.20;;;26.60;41.60;;;;;;5057907;28;20061;-47
2022/10/10 09:34:53;;;;;;;3.03;1.40;;;26.60;41.60;;;;;;5060461;28;20131;-46
2022/10/10 09:37:23;;;;;;;3.60;0.20;;;26.70;42.10;;;;;;5067074;28;20119;-47
2022/10/10 09:39:55;;;;;;;1.17;0.32;;;26.70;41.70;;;;;;5063199;28;20051;-47
2022/10/10 09:42:33;;;;;;;3.53;0.50;;;26.70;41.70;;;;;;5062525;28;20401;-49
2022/10/10 09:45:00;;;;;;;4.97;0.60;;;26.70;41.60;;;;;;5065560;28;20082;-47
2022/10/10 09:47:29;;;;;;;3.53;0.63;;;26.80;41.70;;;;;;5060026;28;20523;-49
2022/10/10 09:49:57;;;;;;;2.10;0.68;;;26.80;41.70;;;;;;5060693;28;20132;-49
2022/10/10 09:52:27;;;;;;;3.50;0.63;;;26.80;41.60;;;;;;5053270;28;20127;-47
2022/10/10 09:55:01;;;;;;;5.50;0.40;;;26.80;41.60;;;;;;5061132;28;20509;-49
2022/10/10 09:57:33;;;;;;;6.03;0.57;;;26.80;41.60;;;;;;5060749;28;20893;-47
2022/10/10 10:00:26;;;;;;;3.30;0.35;;;26.90;41.70;;;;;;5061374;28;20041;-48
2022/10/10 10:03:09;;;;;;;5.63;0.40;;;26.90;41.60;;;;;;5057301;28;20118;-47
2022/10/10 10:05:37;;;;;;;1.00;0.45;;;26.90;41.60;;;;;;5049916;28;20072;-46
2022/10/10 10:08:04;;;;;;;2.83;0.60;;;26.90;41.60;;;;;;5065212;28;20040;-46
2022/10/10 10:10:35;;;;;;;1.92;0.93;;;26.90;41.60;;;;;;5061797;28;20048;-47
2022/10/10 10:13:02;;;;;;;6.88;0.70;;;27.00;41.70;;;;;;5065236;28;20051;-47
2022/10/10 10:15:32;;;;;;;8.55;1.50;;;27.00;41.60;;;;;;5059694;28;20064;-47
2022/10/10 10:18:24;;;;;;;0.90;0.30;;;27.10;41.50;;;;;;5050883;28;20051;-47
2022/10/10 10:20:53;;;;;;;6.85;0.93;;;27.20;41.40;;;;;;5051002;28;20048;-49
2022/10/10 10:23:25;;;;;;;5.35;1.48;;;27.20;41.40;;;;;;5065417;28;20040;-47
2022/10/10 10:26:00;;;;;;;5.00;1.23;;;27.30;41.30;;;;;;5061879;28;20056;-46
2022/10/10 10:28:27;;;;;;;4.93;0.90;;;27.40;41.20;;;;;;5057253;28;20584;-60
2022/10/10 10:30:56;;;;;;;4.53;1.17;;;27.40;41.20;;;;;;5053692;28;20533;-48
2022/10/10 10:33:46;;;;;;;7.13;1.92;;;27.40;41.10;;;;;;5050154;28;20111;-50
2022/10/10 10:36:25;;;;;;;4.47;1.27;;;27.50;41.00;;;;;;5052134;28;20044;-54
2022/10/10 10:39:00;;;;;;;5.50;1.20;;;27.50;41.10;;;;;;5060930;28;20048;-48
2022/10/10 10:41:34;;;;;;;3.93;0.87;;;27.50;41.00;;;;;;5063299;28;20131;-49
2022/10/10 10:44:21;;;;;;;8.32;1.23;;;27.50;41.00;;;;;;5062135;28;20310;-49
2022/10/10 10:46:59;;;;;;;4.65;1.58;;;27.60;41.00;;;;;;5060414;28;20037;-47
2022/10/10 10:49:36;;;;;;;6.00;0.57;;;27.60;41.00;;;;;;5062756;28;20045;-48
2022/10/10 10:52:21;;;;;;;7.45;0.77;;;27.60;40.90;;;;;;5062027;28;20045;-46
2022/10/10 10:55:07;;;;;;;3.72;1.00;;;27.70;41.00;;;;;;5060564;28;20047;-49
2022/10/10 10:57:43;;;;;;;4.13;0.93;;;27.70;41.00;;;;;;5057827;28;20133;-49
2022/10/10 11:00:14;;;;;;;5.13;1.55;;;27.70;40.90;;;;;;5049573;28;20064;-49
2022/10/10 11:02:46;;;;;;;2.53;0.93;;;27.70;40.90;;;;;;5057126;28;20049;-47
2022/10/10 11:05:35;;;;;;;4.72;0.52;;;27.80;41.00;;;;;;5057619;28;20714;-49
2022/10/10 11:08:35;;;;;;;6.78;0.90;;;27.80;40.90;;;;;;5063516;28;20729;-47
2022/10/10 11:11:25;;;;;;;6.03;1.45;;;27.90;40.90;;;;;;5060792;28;20047;-46
2022/10/10 11:13:59;;;;;;;2.80;0.80;;;27.90;40.90;;;;;;5051325;28;20049;-45
2022/10/10 11:16:32;;;;;;;12.88;0.95;;;27.90;40.90;;;;;;5061785;28;20123;-45
2022/10/10 11:19:12;;;;;;;2.28;0.70;;;27.90;40.80;;;;;;5042115;28;20569;-47
2022/10/10 11:21:45;;;;;;;7.50;0.93;;;27.90;40.70;;;;;;5062337;28;20040;-46
2022/10/10 11:24:19;;;;;;;2.78;0.52;;;27.80;40.70;;;;;;5068034;28;20523;-46
2022/10/10 11:26:52;;;;;;;5.43;1.00;;;27.70;40.80;;;;;;5054373;28;20045;-44
2022/10/10 11:29:23;;;;;;;5.70;0.77;;;27.70;41.00;;;;;;5068793;28;20051;-46
2022/10/10 11:31:56;;;;;;;5.95;0.52;;;27.60;41.70;;;;;;5066182;28;20052;-45
2022/10/10 11:34:29;;;;;;;5.78;0.85;;;27.50;41.20;;;;;;5050916;28;20069;-46
2022/10/10 11:37:02;;;;;;;5.90;0.85;;;27.40;41.20;;;;;;5069771;28;20127;-46
2022/10/10 11:39:37;;;;;;;2.10;0.77;;;27.30;41.30;;;;;;5050608;28;20036;-44
2022/10/10 11:42:12;;;;;;;5.60;0.95;;;27.30;41.50;;;;;;5066131;28;20052;-44
2022/10/10 11:44:44;;;;;;;7.38;1.30;;;27.20;41.60;;;;;;5068587;28;20086;-45
2022/10/10 11:47:19;;;;;;;5.38;1.02;;;27.20;41.80;;;;;;5059319;28;20040;-47
2022/10/10 11:49:53;;;;;;;9.73;0.68;;;27.10;41.80;;;;;;5069567;28;20040;-44
2022/10/10 11:52:26;;;;;;;2.85;1.05;;;27.00;41.90;;;;;;5069963;28;20051;-46
2022/10/10 11:54:59;;;;;;;2.35;0.52;;;27.00;42.60;;;;;;5063745;28;20051;-46
2022/10/10 11:57:33;;;;;;;8.50;0.93;;;27.00;42.10;;;;;;5069391;28;20051;-44
2022/10/10 12:00:04;;;;;;;8.02;0.82;;;26.90;42.20;;;;;;5069502;28;20502;-45
2022/10/10 12:02:35;;;;;;;1.08;0.73;;;26.90;42.30;;;;;;5052289;28;20044;-45
2022/10/10 12:05:04;;;;;;;5.10;1.30;;;26.80;42.30;;;;;;5056391;28;20531;-47
2022/10/10 12:07:40;;;;;;;3.22;0.77;;;26.80;42.50;;;;;;5057265;28;20125;-45
2022/10/10 12:10:11;;;;;;;3.63;0.77;;;26.70;42.60;;;;;;5069238;28;20086;-45
2022/10/10 12:12:42;;;;;;;3.75;0.82;;;26.70;42.70;;;;;;5067696;28;20146;-44
2022/10/10 12:15:17;;;;;;;3.17;1.10;;;26.60;42.70;;;;;;5050389;28;20041;-46
2022/10/10 12:17:46;;;;;;;10.52;1.15;;;26.60;42.80;;;;;;5049968;28;20044;-45
2022/10/10 12:20:32;;;;;;;4.10;0.63;;;26.60;42.90;;;;;;5049438;28;20048;-46
2022/10/10 12:23:22;;;;;;;3.50;1.10;;;26.60;43.00;;;;;;5061877;28;20058;-46
2022/10/10 12:25:49;;;;;;;7.65;1.50;;;26.50;43.10;;;;;;5069310;28;20060;-46
2022/10/10 12:28:29;;;;;;;3.55;1.70;;;26.50;43.20;;;;;;5063003;28;20792;-45
2022/10/10 12:31:28;;;;;;;6.70;0.93;;;26.50;43.40;;;;;;5067525;28;20060;-44
2022/10/10 12:34:17;;;;;;;4.68;0.77;;;26.50;43.50;;;;;;5053342;28;20045;-46
2022/10/10 12:36:57;;;;;;;8.68;0.95;;;26.40;43.60;;;;;;5043322;28;20037;-48
2022/10/10 12:39:39;;;;;;;4.45;1.40;;;26.40;43.80;;;;;;5065723;28;20037;-47
2022/10/10 12:42:26;;;;;;;6.03;0.68;;;26.30;43.70;;;;;;5049505;28;20135;-47
2022/10/10 12:44:53;;;;;;;3.78;1.55;;;26.30;43.70;;;;;;5052713;28;20049;-51
2022/10/10 12:47:44;;;;;;;4.10;1.00;;;26.20;43.80;;;;;;5055051;28;20036;-46
2022/10/10 12:50:22;;;;;;;6.80;0.80;;;26.20;43.70;;;;;;5065949;28;20055;-48
2022/10/10 12:52:53;;;;;;;6.88;1.10;;;26.20;43.90;;;;;;5067966;28;20048;-47
2022/10/10 12:55:24;;;;;;;8.32;1.02;;;26.10;43.90;;;;;;5061552;28;20055;-50
2022/10/10 12:57:54;;;;;;;3.55;0.95;;;26.10;44.40;;;;;;5055312;28;20040;-46
2022/10/10 13:00:23;;;;;;;7.05;0.90;;;26.10;44.20;;;;;;5057447;28;20051;-48
2022/10/10 13:02:52;;;;;;;5.95;2.40;;;26.10;44.30;;;;;;5062693;28;20056;-47
2022/10/10 13:05:27;;;;;;;4.70;0.80;;;26.10;44.40;;;;;;5068120;28;20579;-48
2022/10/10 13:07:59;;;;;;;5.70;0.77;;;26.00;44.40;;;;;;5068620;28;20401;-47